Time;durP1;ratioP1;P1;durP2;ratioP2;P2;SDS_P1;SDS_P2;PMS_P1;PMS_P2;Temp;Humidity;BMP_temperature;BMP_pressure;BME280_temperature;BME280_humidity;BME280_pressure;Samples;Min_cycle;Max_cycle;Signal;HPM_P1;HPM_P2
2022/03/29 00:00:40;;;;;;;2.30;1.88;;;;;;;-4.62;58.13;98387.41;6277311;22;20038;-83
2022/03/29 00:03:08;;;;;;;2.05;1.85;;;;;;;-4.57;57.57;98385.47;6276454;22;20481;-84
2022/03/29 00:05:35;;;;;;;2.42;2.03;;;;;;;-4.56;57.88;98377.59;6278270;22;20016;-85
2022/03/29 00:08:02;;;;;;;1.98;1.77;;;;;;;-4.64;57.34;98367.41;6251035;22;20028;-84
2022/03/29 00:10:28;;;;;;;2.15;1.77;;;;;;;-4.64;57.33;98359.59;6278109;22;20035;-83
2022/03/29 00:12:54;;;;;;;2.55;1.73;;;;;;;-4.58;57.48;98358.56;6276484;22;20436;-84
2022/03/29 00:15:24;;;;;;;3.25;1.60;;;;;;;-4.62;57.32;98346.53;6302364;22;20012;-82
2022/03/29 00:17:50;;;;;;;1.95;1.70;;;;;;;-4.76;57.80;98336.56;6276432;22;20513;-83
2022/03/29 00:20:17;;;;;;;3.95;1.88;;;;;;;-4.83;57.19;98335.06;6277934;22;20054;-83
2022/03/29 00:22:44;;;;;;;2.55;1.65;;;;;;;-4.98;57.50;98333.84;6251049;22;20453;-85
2022/03/29 00:25:10;;;;;;;1.55;1.45;;;;;;;-5.08;57.34;98339.41;6277918;22;20026;-83
2022/03/29 00:27:38;;;;;;;2.83;1.65;;;;;;;-5.12;57.64;98344.69;6277177;22;20501;-83
2022/03/29 00:30:06;;;;;;;5.97;1.77;;;;;;;-5.16;57.42;98340.50;6277393;22;20015;-83
2022/03/29 00:32:33;;;;;;;1.75;1.60;;;;;;;-5.13;57.43;98329.13;6278178;22;20015;-83
2022/03/29 00:34:59;;;;;;;1.98;1.77;;;;;;;-5.14;57.12;98343.91;6276975;22;20049;-82
2022/03/29 00:37:25;;;;;;;4.70;2.00;;;;;;;-5.15;57.15;98325.75;6277701;22;20020;-83
2022/03/29 00:39:51;;;;;;;1.80;1.70;;;;;;;-5.19;57.56;98325.00;6278142;22;20396;-82
2022/03/29 00:42:17;;;;;;;1.83;1.40;;;;;;;-5.27;56.80;98316.56;6254892;22;20348;-84
2022/03/29 00:44:43;;;;;;;3.78;1.70;;;;;;;-5.35;56.92;98313.34;6282357;22;20094;-82
2022/03/29 00:47:09;;;;;;;1.65;1.50;;;;;;;-5.45;57.06;98306.75;6250813;22;20018;-81
2022/03/29 00:49:35;;;;;;;2.08;1.73;;;;;;;-5.39;56.76;98301.34;6250600;22;20094;-81
2022/03/29 00:52:03;;;;;;;4.35;2.00;;;;;;;-5.44;56.65;98287.63;6225447;22;20023;-80
2022/03/29 00:54:35;;;;;;;1.77;1.65;;;;;;;-5.51;57.34;98296.53;6277480;22;20015;-82
2022/03/29 00:57:03;;;;;;;1.60;1.50;;;;;;;-5.53;57.31;98295.72;6200373;22;20352;-82
2022/03/29 00:59:29;;;;;;;2.22;1.58;;;;;;;-5.52;56.97;98282.66;6250642;22;20513;-83
2022/03/29 01:02:00;;;;;;;3.15;1.67;;;;;;;-5.50;57.11;98291.25;6250769;22;20015;-84
2022/03/29 01:04:27;;;;;;;5.13;2.25;;;;;;;-5.53;56.80;98287.91;6250695;22;20099;-84
2022/03/29 01:06:58;;;;;;;1.70;1.60;;;;;;;-5.59;57.04;98288.13;6275803;22;20057;-84
2022/03/29 01:09:26;;;;;;;2.08;1.50;;;;;;;-5.62;57.13;98300.31;6276153;22;20019;-85
2022/03/29 01:11:53;;;;;;;4.20;2.03;;;;;;;-5.73;57.13;98291.16;6276994;22;20105;-83
2022/03/29 01:14:26;;;;;;;2.40;1.73;;;;;;;-5.69;57.20;98304.00;6250405;22;20020;-84
2022/03/29 01:19:38;;;;;;;2.13;1.92;;;;;;;-5.59;57.29;98301.13;6277450;22;20041;-83
2022/03/29 01:22:07;;;;;;;2.75;2.15;;;;;;;-5.54;57.08;98296.63;6277202;22;20018;-84
2022/03/29 01:24:40;;;;;;;1.80;1.70;;;;;;;-5.51;57.14;98302.59;6250245;22;20023;-83
2022/03/29 01:27:07;;;;;;;2.83;2.05;;;;;;;-5.47;56.92;98292.91;6277461;22;20020;-86
2022/03/29 01:29:35;;;;;;;2.80;2.00;;;;;;;-5.43;56.76;98294.53;6224591;22;20020;-84
2022/03/29 01:32:11;;;;;;;2.05;1.85;;;;;;;-5.54;57.13;98286.22;6249924;22;20051;-83
2022/03/29 01:34:41;;;;;;;2.45;1.98;;;;;;;-5.47;57.51;98290.31;6250033;22;20073;-83
2022/03/29 01:37:07;;;;;;;2.15;1.83;;;;;;;-5.40;57.08;98284.00;6250306;22;20012;-83
2022/03/29 01:39:34;;;;;;;4.22;1.90;;;;;;;-5.39;57.29;98276.13;6225638;22;20022;-83
2022/03/29 01:42:00;;;;;;;4.93;2.03;;;;;;;-5.44;57.14;98267.63;6251310;22;20038;-85
2022/03/29 01:44:26;;;;;;;3.13;2.25;;;;;;;-5.35;57.52;98274.28;6276961;22;20020;-81
2022/03/29 01:46:53;;;;;;;3.55;2.03;;;;;;;-5.34;57.16;98273.41;6274702;22;20073;-83
2022/03/29 01:49:20;;;;;;;5.82;2.30;;;;;;;-5.37;57.08;98263.09;6277200;22;20023;-89
2022/03/29 01:51:46;;;;;;;2.95;2.05;;;;;;;-5.44;57.41;98256.38;6278821;22;20090;-86
2022/03/29 01:54:12;;;;;;;3.33;2.20;;;;;;;-5.48;57.29;98255.63;6275632;22;20055;-84
2022/03/29 01:56:38;;;;;;;2.13;1.83;;;;;;;-5.44;57.79;98245.97;6250025;22;20070;-83
2022/03/29 01:59:06;;;;;;;12.07;2.47;;;;;;;-5.43;57.85;98245.03;6275733;22;20015;-82
2022/03/29 02:01:40;;;;;;;3.03;2.15;;;;;;;-5.48;57.72;98240.00;6277444;22;20031;-82
2022/03/29 02:04:06;;;;;;;6.32;2.83;;;;;;;-5.49;58.06;98237.44;6275390;22;20384;-82
2022/03/29 02:06:32;;;;;;;5.68;2.75;;;;;;;-5.66;58.85;98240.59;6276535;22;20051;-85
2022/03/29 02:08:57;;;;;;;2.63;2.30;;;;;;;-5.55;59.29;98227.22;6281113;22;20074;-83
2022/03/29 02:11:23;;;;;;;4.82;2.20;;;;;;;-5.55;59.36;98228.06;6276592;22;20019;-83
2022/03/29 02:13:49;;;;;;;2.03;1.83;;;;;;;-5.57;59.85;98209.03;6275352;22;20023;-81
2022/03/29 02:16:15;;;;;;;2.97;2.60;;;;;;;-5.53;59.51;98220.22;6277078;22;20458;-83
2022/03/29 02:18:41;;;;;;;7.53;2.47;;;;;;;-5.55;60.02;98206.41;6276434;22;20023;-82
2022/03/29 02:21:07;;;;;;;3.90;2.30;;;;;;;-5.52;60.74;98208.91;6276886;22;20061;-81
2022/03/29 02:23:33;;;;;;;2.88;2.20;;;;;;;-5.51;61.03;98205.41;6274437;22;20031;-84
2022/03/29 02:25:59;;;;;;;2.72;2.47;;;;;;;-5.43;61.17;98205.97;6276193;22;20511;-83
2022/03/29 02:28:25;;;;;;;10.02;3.20;;;;;;;-5.34;61.32;98205.69;6276420;22;20016;-82
2022/03/29 02:30:51;;;;;;;9.88;3.42;;;;;;;-5.17;61.29;98190.31;6276443;22;20066;-82
2022/03/29 02:33:17;;;;;;;8.20;3.38;;;;;;;-5.10;61.06;98177.91;6274499;22;20363;-83
2022/03/29 02:35:43;;;;;;;22.08;4.10;;;;;;;-4.92;61.42;98181.63;6300826;22;20019;-84
2022/03/29 02:38:11;;;;;;;4.07;3.13;;;;;;;-4.83;61.63;98172.63;6280731;22;20027;-82
2022/03/29 02:40:38;;;;;;;13.20;4.20;;;;;;;-4.73;61.08;98181.81;6295094;22;20019;-84
2022/03/29 02:43:04;;;;;;;5.70;4.07;;;;;;;-4.68;60.98;98170.28;6294251;22;20050;-83
2022/03/29 02:45:30;;;;;;;6.35;4.00;;;;;;;-4.60;60.96;98161.31;6293455;22;20019;-82
2022/03/29 02:47:58;;;;;;;9.77;4.43;;;;;;;-4.47;61.03;98162.56;6252538;22;20110;-81
2022/03/29 02:50:25;;;;;;;20.70;4.75;;;;;;;-4.55;61.51;98162.88;6274660;22;20104;-82
2022/03/29 02:52:57;;;;;;;12.27;4.90;;;;;;;-4.55;61.83;98148.94;6274710;22;20024;-82
2022/03/29 02:55:28;;;;;;;7.65;4.45;;;;;;;-4.52;61.72;98131.44;6249247;22;20094;-84
2022/03/29 02:57:54;;;;;;;8.35;4.07;;;;;;;-4.39;61.85;98134.44;6248761;22;20024;-82
2022/03/29 03:00:21;;;;;;;11.02;4.25;;;;;;;-4.27;61.72;98128.72;6274786;22;20047;-83
2022/03/29 03:02:51;;;;;;;4.95;3.30;;;;;;;-4.32;62.25;98130.66;6274834;22;20022;-83
2022/03/29 03:05:21;;;;;;;6.93;3.90;;;;;;;-4.41;62.34;98137.06;6224172;22;20482;-83
2022/03/29 03:07:48;;;;;;;4.55;2.85;;;;;;;-4.35;62.28;98130.78;6275048;22;20463;-83
2022/03/29 03:10:15;;;;;;;6.20;2.88;;;;;;;-4.31;62.45;98127.13;6276878;22;20016;-82
2022/03/29 03:12:43;;;;;;;3.72;2.67;;;;;;;-4.24;62.45;98133.81;6274591;22;20587;-81
2022/03/29 03:15:12;;;;;;;4.85;3.00;;;;;;;-4.24;62.73;98115.56;6276346;22;20015;-79
2022/03/29 03:17:39;;;;;;;;;;;;;;;-4.10;62.45;98120.19;6277755;22;20431;-82
2022/03/29 03:20:05;;;;;;;5.65;2.65;;;;;;;-4.15;62.45;98111.72;6275571;22;19990;-82
2022/03/29 03:22:33;;;;;;;3.47;2.67;;;;;;;-4.11;62.53;98122.88;6282325;22;20350;-85
2022/03/29 03:24:59;;;;;;;2.75;2.40;;;;;;;-4.17;62.63;98119.63;6287425;22;20016;-84
2022/03/29 03:27:25;;;;;;;5.38;2.47;;;;;;;-3.81;63.01;98111.19;6288901;22;20036;-83
2022/03/29 03:29:51;;;;;;;4.00;2.78;;;;;;;-3.79;62.10;98108.53;6263009;22;20351;-81
2022/03/29 03:32:17;;;;;;;3.17;2.50;;;;;;;-3.88;62.03;98107.13;6281756;22;20489;-84
2022/03/29 03:34:43;;;;;;;4.43;3.20;;;;;;;-3.76;62.15;98111.84;6278078;22;20015;-81
2022/03/29 03:37:09;;;;;;;5.38;3.28;;;;;;;-3.76;61.85;98106.63;6276544;22;20018;-82
2022/03/29 03:39:37;;;;;;;8.73;3.13;;;;;;;-3.76;62.29;98098.78;6276726;22;20038;-82
2022/03/29 03:42:09;;;;;;;4.68;2.53;;;;;;;-3.74;61.81;98090.88;6275372;22;20027;-93
2022/03/29 03:44:39;;;;;;;2.90;2.22;;;;;;;-3.54;61.80;98093.47;6278181;22;20016;-82
2022/03/29 03:47:08;;;;;;;;;;;;;;;-3.54;61.61;98085.63;6277118;22;20016;-82
2022/03/29 03:49:38;;;;;;;5.88;2.72;;;;;;;-3.69;61.05;98084.53;6225737;22;20052;-82
2022/03/29 03:52:06;;;;;;;3.60;2.47;;;;;;;-3.65;61.55;98087.88;6276019;22;20103;-81
2022/03/29 03:54:36;;;;;;;5.75;3.25;;;;;;;-3.37;61.43;98087.53;6250221;22;20054;-86
2022/03/29 03:57:03;;;;;;;6.07;2.80;;;;;;;-3.18;60.73;98085.81;6276093;22;20490;-82
2022/03/29 03:59:29;;;;;;;6.53;3.53;;;;;;;-3.01;60.29;98078.94;6302244;22;20168;-84
2022/03/29 04:01:55;;;;;;;13.15;3.35;;;;;;;-2.93;59.49;98084.72;6278567;22;20024;-85
2022/03/29 04:04:21;;;;;;;4.35;2.53;;;;;;;-2.82;59.18;98084.19;6276532;22;20034;-83
2022/03/29 04:06:47;;;;;;;6.43;3.17;;;;;;;-2.84;58.56;98072.97;6276706;22;20019;-83
2022/03/29 04:09:13;;;;;;;3.45;2.78;;;;;;;-2.58;58.78;98083.06;6275899;22;20015;-84
2022/03/29 04:11:38;;;;;;;3.22;2.67;;;;;;;-2.73;57.25;98097.69;6250742;22;20022;-87
2022/03/29 04:14:04;;;;;;;3.47;2.78;;;;;;;-2.78;57.21;98089.22;6249862;22;20328;-80
2022/03/29 04:16:30;;;;;;;3.97;2.85;;;;;;;-2.90;57.01;98081.94;6275920;22;20020;-82
2022/03/29 04:18:56;;;;;;;5.82;2.22;;;;;;;-3.04;56.39;98086.97;6276058;22;20023;-83
2022/03/29 04:21:22;;;;;;;4.15;2.47;;;;;;;-3.23;56.48;98082.56;6275640;22;20034;-84
2022/03/29 04:23:48;;;;;;;3.53;2.53;;;;;;;-3.34;57.16;98090.03;6278000;22;20035;-84
2022/03/29 04:26:14;;;;;;;6.50;2.50;;;;;;;-3.20;56.99;98092.88;6252483;22;20031;-82
2022/03/29 04:28:40;;;;;;;10.05;2.85;;;;;;;-3.10;56.51;98093.28;6251570;22;20026;-84
2022/03/29 04:31:09;;;;;;;3.70;2.22;;;;;;;-3.26;56.42;98098.38;6250903;22;20094;-84
2022/03/29 04:33:36;;;;;;;3.13;2.33;;;;;;;-3.33;56.33;98089.09;6275858;22;20020;-89
2022/03/29 04:36:02;;;;;;;3.22;2.55;;;;;;;-3.30;56.45;98095.97;6273988;22;20039;-85
2022/03/29 04:38:28;;;;;;;3.00;2.70;;;;;;;-3.18;55.97;98070.13;6300391;22;20011;-82
2022/03/29 04:40:54;;;;;;;10.68;2.70;;;;;;;-3.06;55.77;98083.56;6276903;22;20077;-84
2022/03/29 04:43:21;;;;;;;4.68;2.30;;;;;;;-3.11;55.92;98075.06;6275159;22;20023;-80
2022/03/29 04:45:48;;;;;;;7.80;2.30;;;;;;;-3.08;55.84;98085.41;6275664;22;20018;-81
2022/03/29 04:48:14;;;;;;;10.38;2.40;;;;;;;-3.06;54.78;98088.78;6276346;22;20454;-82
2022/03/29 04:50:40;;;;;;;6.20;2.67;;;;;;;-3.08;53.62;98101.09;6276332;22;20016;-80
2022/03/29 04:53:07;;;;;;;15.20;2.92;;;;;;;-3.24;54.06;98080.00;6276908;22;20043;-80
2022/03/29 04:55:34;;;;;;;5.13;2.50;;;;;;;-3.23;54.02;98098.22;6275640;22;20023;-82
2022/03/29 04:58:00;;;;;;;2.30;2.05;;;;;;;-3.31;53.79;98089.88;6275911;22;20016;-80
2022/03/29 05:00:26;;;;;;;11.88;2.38;;;;;;;-3.41;54.26;98104.25;6277713;22;20016;-80
2022/03/29 05:02:52;;;;;;;3.97;2.30;;;;;;;-3.36;54.09;98102.28;6276360;22;20026;-80
2022/03/29 05:05:19;;;;;;;4.38;2.10;;;;;;;-3.31;54.01;98097.72;6277247;22;20383;-82
2022/03/29 05:07:45;;;;;;;2.38;1.98;;;;;;;-3.34;53.72;98091.78;6277654;22;20110;-80
2022/03/29 05:10:12;;;;;;;9.35;3.95;;;;;;;-3.37;53.87;98073.63;6276409;22;20020;-82
2022/03/29 05:12:43;;;;;;;3.83;2.10;;;;;;;-3.37;53.65;98091.91;6250768;22;20035;-78
2022/03/29 05:15:10;;;;;;;3.90;2.90;;;;;;;-3.41;53.87;98072.91;6277761;22;20065;-81
2022/03/29 05:17:36;;;;;;;6.90;2.38;;;;;;;-3.35;53.39;98071.78;6277258;22;20016;-82
2022/03/29 05:20:03;;;;;;;7.50;2.33;;;;;;;-3.30;52.82;98070.66;6300914;22;20102;-81
2022/03/29 05:22:29;;;;;;;9.65;2.80;;;;;;;-3.42;52.85;98052.94;6248751;22;20020;-81
2022/03/29 05:24:56;;;;;;;2.20;2.00;;;;;;;-3.37;53.50;98068.41;6250180;22;20106;-79
2022/03/29 05:27:21;;;;;;;5.63;2.50;;;;;;;-3.35;53.16;98046.50;6277197;22;20027;-79
2022/03/29 05:29:47;;;;;;;6.85;2.47;;;;;;;-3.33;53.49;98055.13;6301324;22;20351;-79
2022/03/29 05:32:18;;;;;;;3.50;2.05;;;;;;;-3.43;53.48;98022.47;6276989;22;20463;-82
2022/03/29 05:34:47;;;;;;;3.78;2.10;;;;;;;-3.41;53.50;98025.88;6250542;22;20011;-82
2022/03/29 05:37:14;;;;;;;1.75;1.52;;;;;;;-3.18;53.89;98028.31;6250365;22;20022;-81
2022/03/29 05:39:43;;;;;;;4.38;2.60;;;;;;;-2.99;54.01;98017.84;6275288;22;20015;-82
2022/03/29 05:42:09;;;;;;;3.10;1.77;;;;;;;-2.86;53.98;98010.25;6249987;22;20019;-82
2022/03/29 05:44:37;;;;;;;6.93;2.50;;;;;;;-2.85;54.45;98019.81;6249250;22;20527;-79
2022/03/29 05:49:48;;;;;;;1.58;1.42;;;;;;;-2.93;54.56;97990.59;6275455;22;20018;-81
2022/03/29 05:52:15;;;;;;;3.67;2.28;;;;;;;-3.02;55.82;97975.31;6277467;22;20355;-85
2022/03/29 05:54:44;;;;;;;4.20;2.80;;;;;;;-3.03;56.44;97957.94;6276794;22;20019;-80
2022/03/29 05:57:17;;;;;;;8.23;2.70;;;;;;;-2.97;56.70;97960.25;6276557;22;20023;-80
2022/03/29 05:59:44;;;;;;;3.83;3.00;;;;;;;-3.18;57.38;97939.44;6275036;22;20019;-81
2022/03/29 06:02:10;;;;;;;3.28;2.33;;;;;;;-3.11;56.92;97934.78;6275452;22;20016;-80
2022/03/29 06:04:37;;;;;;;9.20;4.03;;;;;;;-3.26;57.80;97914.59;6249734;22;20016;-80
2022/03/29 06:07:04;;;;;;;11.07;3.85;;;;;;;-3.08;57.75;97908.50;6275438;22;20023;-80
2022/03/29 06:09:31;;;;;;;18.90;6.80;;;;;;;-3.17;58.04;97898.47;6276896;22;20024;-80
2022/03/29 06:11:57;;;;;;;16.13;8.35;;;;;;;-3.04;57.83;97898.75;6276886;22;20015;-81
2022/03/29 06:14:23;;;;;;;15.23;7.40;;;;;;;-2.91;57.93;97888.53;6300607;22;20022;-81
2022/03/29 06:16:52;;;;;;;21.02;5.40;;;;;;;-2.86;57.79;97860.38;6275518;22;20449;-81
2022/03/29 06:19:19;;;;;;;13.65;3.08;;;;;;;-2.91;57.50;97854.53;6275106;22;20023;-82
2022/03/29 06:21:45;;;;;;;6.28;2.88;;;;;;;-3.01;57.96;97841.06;6300728;22;20023;-81
2022/03/29 06:24:11;;;;;;;1.38;1.25;;;;;;;-3.22;58.39;97838.59;6249152;22;20114;-81
2022/03/29 06:26:39;;;;;;;3.90;2.13;;;;;;;-3.29;58.62;97815.44;6275658;22;20019;-83
2022/03/29 06:29:09;;;;;;;5.30;2.90;;;;;;;-3.17;59.31;97815.69;6275077;22;20058;-79
2022/03/29 06:31:36;;;;;;;5.85;2.08;;;;;;;-3.36;59.65;97799.22;6249916;22;20020;-80
2022/03/29 06:34:03;;;;;;;8.25;3.10;;;;;;;-3.59;61.00;97804.72;6275014;22;20024;-81
2022/03/29 06:36:29;;;;;;;7.50;2.70;;;;;;;-3.92;62.31;97774.03;6274918;22;20016;-82
2022/03/29 06:38:55;;;;;;;2.47;2.00;;;;;;;-3.89;63.56;97786.97;6275046;22;20019;-84
2022/03/29 06:41:21;;;;;;;2.90;2.10;;;;;;;-3.83;63.97;97760.56;6251389;22;20031;-85
2022/03/29 06:43:49;;;;;;;8.00;2.20;;;;;;;-3.71;64.03;97759.97;6276344;22;20027;-79
2022/03/29 06:46:15;;;;;;;14.60;2.88;;;;;;;-3.53;63.61;97744.34;6276354;22;20030;-81
2022/03/29 06:48:42;;;;;;;2.95;2.40;;;;;;;-3.55;64.21;97738.34;6276440;22;20383;-78
2022/03/29 06:51:15;;;;;;;4.50;2.20;;;;;;;-3.34;63.51;97732.06;6223857;22;20511;-83
2022/03/29 06:53:42;;;;;;;5.90;2.88;;;;;;;-3.20;63.48;97727.00;6199940;22;20388;-80
2022/03/29 06:56:08;;;;;;;4.25;2.35;;;;;;;-3.09;62.47;97704.69;6249193;22;20047;-80
2022/03/29 06:58:35;;;;;;;7.57;2.15;;;;;;;-3.43;62.58;97688.94;6223954;22;20015;-79
2022/03/29 07:01:03;;;;;;;5.78;2.10;;;;;;;-3.56;63.14;97687.88;6276280;22;20047;-79
2022/03/29 07:03:29;;;;;;;5.68;2.88;;;;;;;-3.42;63.16;97688.03;6276288;22;20447;-81
2022/03/29 07:05:56;;;;;;;4.70;2.38;;;;;;;-3.27;62.61;97688.16;6223694;22;20500;-80
2022/03/29 07:08:22;;;;;;;8.40;2.38;;;;;;;-3.53;62.90;97692.13;6275805;22;20023;-79
2022/03/29 07:13:34;;;;;;;2.25;2.05;;;;;;;-3.51;63.45;97685.88;6253629;22;20026;-82
2022/03/29 07:16:00;;;;;;;3.25;2.22;;;;;;;-3.57;64.34;97646.16;6280938;22;20081;-81
2022/03/29 07:18:26;;;;;;;5.28;2.33;;;;;;;-3.69;65.10;97658.91;6281565;22;20015;-81
2022/03/29 07:20:52;;;;;;;3.35;2.00;;;;;;;-3.75;65.15;97672.28;6254030;22;20084;-78
2022/03/29 07:23:17;;;;;;;3.20;2.45;;;;;;;-3.80;65.48;97653.41;6281133;22;20019;-82
2022/03/29 07:25:43;;;;;;;6.05;2.05;;;;;;;-3.91;65.83;97617.38;6251574;22;20016;-80
2022/03/29 07:28:12;;;;;;;3.20;2.30;;;;;;;-4.10;66.99;97636.59;6278091;22;20149;-80
2022/03/29 07:30:43;;;;;;;12.02;1.98;;;;;;;-4.02;67.90;97634.47;6225779;22;20019;-76
2022/03/29 07:33:11;;;;;;;4.97;2.10;;;;;;;-3.91;67.73;97629.59;6252013;22;20019;-82
2022/03/29 07:35:37;;;;;;;4.40;2.20;;;;;;;-3.94;67.81;97607.09;6278387;22;20020;-78
2022/03/29 07:38:09;;;;;;;5.85;2.15;;;;;;;-3.85;67.48;97618.81;6224805;22;20020;-85
2022/03/29 07:40:36;;;;;;;8.43;2.22;;;;;;;-3.81;67.20;97609.06;6225768;22;20355;-81
2022/03/29 07:43:03;;;;;;;5.45;2.47;;;;;;;-3.81;67.16;97614.28;6277442;22;20107;-82
2022/03/29 07:45:28;;;;;;;2.88;2.60;;;;;;;-4.12;68.03;97587.09;6254805;22;20535;-83
2022/03/29 07:47:56;;;;;;;14.75;2.20;;;;;;;-4.13;68.66;97593.25;6278999;22;20039;-82
2022/03/29 07:50:24;;;;;;;6.60;2.65;;;;;;;-4.11;69.03;97586.19;6278964;22;20020;-84
2022/03/29 07:52:50;;;;;;;2.25;1.70;;;;;;;-4.05;69.28;97590.25;6302631;22;20019;-81
2022/03/29 07:55:17;;;;;;;7.35;2.28;;;;;;;-3.88;70.67;97577.19;6280889;22;20023;-83
2022/03/29 07:57:43;;;;;;;4.72;2.35;;;;;;;-4.03;70.10;97564.91;6278696;22;20331;-80
2022/03/29 08:02:58;;;;;;;4.50;2.47;;;;;;;-4.12;71.15;97568.84;6278308;22;20019;-79
2022/03/29 08:05:25;;;;;;;4.50;2.25;;;;;;;-4.19;71.41;97550.03;6301290;22;20016;-83
2022/03/29 08:07:51;;;;;;;6.55;2.47;;;;;;;-4.06;72.87;97552.03;6276340;22;20024;-79
2022/03/29 08:10:17;;;;;;;5.25;2.28;;;;;;;-3.83;72.00;97551.72;6277365;22;20046;-85
2022/03/29 08:12:44;;;;;;;3.10;2.20;;;;;;;-3.62;70.72;97548.94;6277417;22;20058;-79
2022/03/29 08:15:11;;;;;;;2.53;1.92;;;;;;;-3.35;70.11;97537.03;6275934;22;20019;-83
2022/03/29 08:17:38;;;;;;;1.95;1.80;;;;;;;-3.26;69.17;97549.63;6276134;22;20019;-81
2022/03/29 08:20:06;;;;;;;1.45;1.35;;;;;;;-3.17;68.21;97532.59;6274788;22;20337;-89
2022/03/29 08:22:33;;;;;;;3.38;2.20;;;;;;;-3.20;68.36;97528.41;6276601;22;20198;-88
2022/03/29 08:25:02;;;;;;;2.67;1.95;;;;;;;-2.84;68.42;97534.31;6301973;22;20019;-81
2022/03/29 08:27:29;;;;;;;7.13;2.65;;;;;;;-2.42;67.33;97520.59;6301686;22;20020;-86
2022/03/29 08:29:55;;;;;;;2.08;1.88;;;;;;;-2.24;66.07;97506.47;6277540;22;20019;-86
2022/03/29 08:32:21;;;;;;;3.10;2.08;;;;;;;-2.11;65.47;97513.59;6276660;22;20333;-89
2022/03/29 08:34:47;;;;;;;2.35;2.00;;;;;;;-1.90;64.75;97503.66;6275419;22;20027;-91
2022/03/29 08:37:13;;;;;;;5.35;2.53;;;;;;;-1.88;64.90;97494.78;6251020;22;20020;-85
2022/03/29 08:39:39;;;;;;;8.93;2.40;;;;;;;-1.93;65.97;97469.81;6276395;22;20033;-81
2022/03/29 08:42:10;;;;;;;15.85;4.10;;;;;;;-2.32;65.67;97474.69;6277478;22;20051;-85
2022/03/29 08:44:38;;;;;;;13.57;3.13;;;;;;;-2.40;66.90;97470.81;6301683;22;20383;-85
2022/03/29 08:47:08;;;;;;;3.03;2.03;;;;;;;-2.51;67.50;97477.50;6277322;22;20408;-78
2022/03/29 08:49:35;;;;;;;7.32;2.65;;;;;;;-2.48;67.78;97453.78;6249541;22;20020;-80
2022/03/29 08:52:02;;;;;;;3.60;2.10;;;;;;;-2.33;66.94;97438.97;6224971;22;20012;-86
2022/03/29 08:54:28;;;;;;;3.42;1.70;;;;;;;-2.23;67.59;97465.44;6277874;22;20086;-86
2022/03/29 08:56:53;;;;;;;9.98;2.45;;;;;;;-2.30;67.28;97444.00;6276688;22;20046;-81
2022/03/29 08:59:20;;;;;;;5.07;2.67;;;;;;;-2.39;68.12;97443.72;6224749;22;20465;-81
2022/03/29 09:01:47;;;;;;;3.28;2.03;;;;;;;-2.36;68.48;97430.47;6277610;22;20022;-82
2022/03/29 09:04:15;;;;;;;2.97;2.10;;;;;;;-2.31;68.07;97446.72;6249214;22;20012;-81
2022/03/29 09:06:50;;;;;;;10.95;2.70;;;;;;;-2.27;68.36;97425.50;6199583;22;20106;-79
2022/03/29 09:09:44;;;;;;;14.23;2.58;;;;;;;-2.02;67.51;97435.38;6250841;22;20586;-84
2022/03/29 09:12:16;;;;;;;3.42;2.55;;;;;;;-1.96;67.15;97398.38;6272399;22;20169;-78
2022/03/29 09:14:59;;;;;;;6.05;2.35;;;;;;;-1.95;67.32;97399.22;6276325;22;20016;-82
2022/03/29 09:17:46;;;;;;;2.47;2.28;;;;;;;-1.58;70.36;97399.53;6251976;22;20022;-80
2022/03/29 09:20:23;;;;;;;12.98;2.67;;;;;;;-1.39;70.44;97379.13;6255072;22;20162;-82
2022/03/29 09:22:52;;;;;;;12.50;2.80;;;;;;;-0.76;71.13;97394.25;6254537;22;20035;-80
2022/03/29 09:25:21;;;;;;;3.60;3.22;;;;;;;-0.32;68.39;97373.91;6227472;22;20044;-79
2022/03/29 09:27:59;;;;;;;4.60;3.10;;;;;;;-0.20;65.51;97385.34;6250046;22;20020;-77
2022/03/29 09:30:27;;;;;;;5.10;2.15;;;;;;;-0.51;64.33;97379.53;6250036;22;20444;-88
2022/03/29 09:33:12;;;;;;;10.85;2.88;;;;;;;-0.73;65.84;97373.09;6277430;22;20042;-83
2022/03/29 09:35:57;;;;;;;4.53;2.80;;;;;;;-0.76;66.84;97385.56;6224347;22;20122;-85
2022/03/29 09:38:27;;;;;;;5.57;3.20;;;;;;;-0.81;65.95;97361.44;6250305;22;20392;-86
2022/03/29 09:40:55;;;;;;;4.28;3.17;;;;;;;-0.91;67.03;97366.41;6277820;22;20053;-87
2022/03/29 09:44:11;;;;;;;13.50;3.20;;;;;;;-1.01;67.94;97376.69;6251792;22;20027;-83
2022/03/29 09:46:59;;;;;;;8.65;2.97;;;;;;;-1.10;67.62;97360.69;6278123;22;20102;-90
2022/03/29 09:49:26;;;;;;;10.55;3.30;;;;;;;-1.29;68.53;97346.16;6225741;22;20020;-90
2022/03/29 09:52:14;;;;;;;5.10;3.13;;;;;;;-1.32;68.26;97364.69;6225127;22;20023;-87
2022/03/29 09:54:40;;;;;;;12.02;3.67;;;;;;;-1.33;67.99;97367.41;6224304;22;20073;-87
2022/03/29 09:57:06;;;;;;;7.45;3.10;;;;;;;-1.51;68.72;97366.78;6254332;22;20023;-86
2022/03/29 09:59:32;;;;;;;5.32;2.83;;;;;;;-1.33;68.27;97376.13;6255858;22;20015;-91
2022/03/29 10:01:59;;;;;;;6.97;3.33;;;;;;;-1.13;68.30;97376.63;6215289;22;20452;-92
2022/03/29 10:04:30;;;;;;;5.72;4.07;;;;;;;-1.09;67.74;97365.00;6224782;22;20478;-84
2022/03/29 10:06:58;;;;;;;4.50;3.13;;;;;;;-0.80;67.55;97382.28;6222837;22;20015;-88
2022/03/29 10:09:35;;;;;;;9.27;4.38;;;;;;;-0.84;67.79;97372.13;6223273;22;20026;-79
2022/03/29 10:12:04;;;;;;;11.23;4.97;;;;;;;-0.49;68.03;97377.63;6275470;22;20496;-79
2022/03/29 10:14:32;;;;;;;;;;;;;;;-0.45;67.20;97373.91;6249948;22;20015;-79
2022/03/29 10:16:58;;;;;;;12.45;3.83;;;;;;;-0.45;67.60;97352.91;6224179;22;20323;-84
2022/03/29 10:19:25;;;;;;;13.20;6.10;;;;;;;-0.29;67.49;97364.03;6223636;22;20019;-80
2022/03/29 10:21:53;;;;;;;12.30;5.60;;;;;;;-0.18;67.65;97359.84;6274761;22;20023;-76
2022/03/29 10:24:19;;;;;;;5.65;3.20;;;;;;;0.16;67.80;97353.94;6274200;22;20047;-79
2022/03/29 10:26:48;;;;;;;5.57;3.90;;;;;;;0.10;67.67;97338.59;6249124;22;20045;-78
2022/03/29 10:29:17;;;;;;;7.55;3.40;;;;;;;0.20;67.89;97334.38;6275531;22;20019;-79
2022/03/29 10:31:53;;;;;;;4.55;3.70;;;;;;;0.20;68.31;97330.91;6274590;22;20022;-80
2022/03/29 10:34:22;;;;;;;3.80;3.47;;;;;;;0.36;68.05;97343.81;6274612;22;20069;-79
2022/03/29 10:37:08;;;;;;;5.93;3.55;;;;;;;0.51;68.36;97345.34;6275379;22;20019;-78
2022/03/29 10:40:03;;;;;;;6.57;3.25;;;;;;;0.75;67.89;97339.28;6197494;22;20016;-80
2022/03/29 10:42:47;;;;;;;6.22;3.83;;;;;;;1.00;67.74;97347.06;6248457;22;20074;-81
2022/03/29 10:45:25;;;;;;;5.57;2.97;;;;;;;1.08;67.22;97346.50;6226414;22;20351;-82
2022/03/29 10:47:56;;;;;;;5.85;4.13;;;;;;;1.26;67.23;97349.56;6276987;22;20821;-81
2022/03/29 10:50:22;;;;;;;6.90;3.97;;;;;;;1.47;66.54;97337.44;6278429;22;20023;-83
2022/03/29 10:52:49;;;;;;;6.35;3.58;;;;;;;1.79;65.71;97342.06;6300138;22;20011;-79
2022/03/29 10:55:28;;;;;;;4.53;2.80;;;;;;;1.75;65.96;97346.72;6274004;22;20015;-80
2022/03/29 10:58:13;;;;;;;8.70;4.43;;;;;;;1.79;66.45;97352.59;6273628;22;20020;-82
2022/03/29 11:00:46;;;;;;;3.75;3.42;;;;;;;1.73;66.31;97351.28;6273065;22;20015;-82
2022/03/29 11:03:20;;;;;;;9.77;3.92;;;;;;;1.68;66.12;97351.63;6299761;22;20596;-82
2022/03/29 11:06:12;;;;;;;6.28;3.50;;;;;;;1.53;67.88;97373.00;6274181;22;20328;-83
2022/03/29 11:08:46;;;;;;;6.80;3.85;;;;;;;1.42;68.66;97382.53;6274781;22;20011;-81
2022/03/29 11:11:40;;;;;;;6.78;4.18;;;;;;;1.48;68.41;97385.69;6273262;22;20087;-83
2022/03/29 11:14:33;;;;;;;8.05;3.63;;;;;;;1.41;69.07;97386.13;6272969;22;20022;-81
2022/03/29 11:17:11;;;;;;;11.90;4.50;;;;;;;1.41;69.06;97399.28;6273408;22;20486;-82
2022/03/29 11:19:47;;;;;;;7.13;4.13;;;;;;;1.28;69.82;97392.41;6273170;22;20069;-84
2022/03/29 11:22:36;;;;;;;5.75;4.00;;;;;;;1.39;69.76;97402.97;6298931;22;20027;-80
2022/03/29 11:25:14;;;;;;;4.32;3.92;;;;;;;1.38;69.84;97409.19;6298696;22;20027;-80
2022/03/29 11:27:40;;;;;;;5.65;4.18;;;;;;;1.34;70.40;97410.38;6273038;22;20023;-83
2022/03/29 11:30:08;;;;;;;7.18;4.72;;;;;;;1.45;70.00;97407.81;6274753;22;20026;-84
2022/03/29 11:32:35;;;;;;;4.95;3.88;;;;;;;1.53;70.31;97410.69;6247732;22;20031;-82
2022/03/29 11:35:05;;;;;;;6.05;4.80;;;;;;;1.60;70.21;97411.09;6276328;22;20024;-81
2022/03/29 11:37:33;;;;;;;5.30;4.50;;;;;;;1.72;69.61;97411.97;6249591;22;20011;-80
2022/03/29 11:40:01;;;;;;;5.38;4.38;;;;;;;1.76;69.91;97427.41;6274054;22;20020;-80
2022/03/29 11:42:42;;;;;;;4.65;4.22;;;;;;;2.08;69.53;97432.91;6274202;22;20043;-80
2022/03/29 11:45:08;;;;;;;5.65;4.05;;;;;;;2.55;68.44;97425.75;6274358;22;20094;-82
2022/03/29 11:47:34;;;;;;;5.50;4.45;;;;;;;2.94;67.60;97428.03;6275793;22;20161;-82
2022/03/29 11:50:00;;;;;;;5.22;4.25;;;;;;;3.36;66.56;97424.56;6248389;22;20447;-80
2022/03/29 11:52:33;;;;;;;5.05;4.40;;;;;;;3.66;65.05;97423.00;6248580;22;20015;-80